Time;durP1;ratioP1;P1;durP2;ratioP2;P2;SDS_P1;SDS_P2;PMS_P1;PMS_P2;Temp;Humidity;BMP_temperature;BMP_pressure;BME280_temperature;BME280_humidity;BME280_pressure;Samples;Min_cycle;Max_cycle;Signal;HPM_P1;HPM_P2
2020/12/03 00:01:19;;;;;;;1.27;0.20;;;8.00;81.50;;;;;;3498851;34;20149;-88
2020/12/03 00:03:48;;;;;;;1.17;0.35;;;8.00;81.50;;;;;;3489934;41;20145;-89
2020/12/03 00:06:38;;;;;;;0.60;0.45;;;8.00;81.50;;;;;;3484640;33;20577;-88
2020/12/03 00:09:07;;;;;;;1.52;0.52;;;8.00;81.60;;;;;;3492453;33;20471;-89
2020/12/03 00:11:36;;;;;;;0.50;0.32;;;8.00;81.50;;;;;;3485406;33;20485;-89
2020/12/03 00:14:02;;;;;;;5.82;0.38;;;8.00;81.60;;;;;;3491771;33;20135;-88
2020/12/03 00:16:30;;;;;;;3.28;0.28;;;8.00;81.70;;;;;;3497184;34;20129;-89
2020/12/03 00:18:57;;;;;;;0.30;0.13;;;8.00;81.70;;;;;;3495293;33;20142;-89
2020/12/03 00:21:33;;;;;;;0.35;0.22;;;8.10;81.70;;;;;;3499276;33;20149;-91
2020/12/03 00:24:00;;;;;;;1.48;0.20;;;8.10;81.80;;;;;;3500234;33;20655;-89
2020/12/03 00:26:28;;;;;;;0.43;0.15;;;8.10;81.70;;;;;;3503557;33;20127;-88
2020/12/03 00:28:55;;;;;;;0.77;0.13;;;8.00;81.70;;;;;;3490738;41;20133;-88
2020/12/03 00:31:21;;;;;;;0.25;0.10;;;8.10;81.90;;;;;;3497050;34;20138;-90
2020/12/03 00:33:48;;;;;;;0.05;0.05;;;8.10;81.80;;;;;;3490250;41;20608;-88
2020/12/03 00:36:15;;;;;;;0.32;0.10;;;8.10;81.90;;;;;;3493681;33;20138;-91
2020/12/03 00:38:41;;;;;;;1.75;0.82;;;8.10;81.90;;;;;;3491218;41;20146;-88
2020/12/03 00:41:08;;;;;;;0.77;0.63;;;8.10;81.90;;;;;;3493219;33;20142;-88
2020/12/03 00:43:34;;;;;;;0.57;0.30;;;8.10;81.90;;;;;;3502070;33;20147;-90
2020/12/03 00:46:01;;;;;;;1.08;0.45;;;8.10;81.90;;;;;;3499512;34;20170;-89
2020/12/03 00:48:27;;;;;;;0.40;0.10;;;8.10;81.90;;;;;;3492158;33;20129;-88
2020/12/03 00:50:53;;;;;;;0.05;0.00;;;8.10;81.90;;;;;;3499509;41;20502;-91
2020/12/03 00:53:21;;;;;;;0.40;0.17;;;8.10;81.90;;;;;;3491711;41;20446;-90
2020/12/03 00:55:48;;;;;;;0.90;0.22;;;8.10;81.90;;;;;;3485707;41;20126;-90
2020/12/03 00:58:14;;;;;;;0.30;0.10;;;8.10;82.00;;;;;;3483992;33;20489;-90
2020/12/03 01:00:40;;;;;;;0.20;0.10;;;8.10;82.00;;;;;;3495514;34;21555;-89
2020/12/03 01:03:07;;;;;;;0.63;0.20;;;8.20;82.00;;;;;;3487359;41;20406;-90
2020/12/03 01:05:33;;;;;;;0.32;0.13;;;8.20;82.00;;;;;;3486492;41;20635;-89
2020/12/03 01:08:00;;;;;;;0.30;0.00;;;8.20;82.00;;;;;;3489593;41;20154;-88
2020/12/03 01:10:28;;;;;;;0.90;0.20;;;8.10;82.00;;;;;;3488907;33;20158;-89
2020/12/03 01:12:55;;;;;;;1.45;0.63;;;8.20;82.10;;;;;;3492467;33;20302;-89
2020/12/03 01:15:21;;;;;;;1.75;0.88;;;8.20;82.10;;;;;;3484892;33;20103;-90
2020/12/03 01:17:48;;;;;;;0.73;0.32;;;8.20;82.10;;;;;;3508084;33;20286;-90
2020/12/03 01:20:16;;;;;;;0.25;0.10;;;8.20;82.10;;;;;;3511438;40;20086;-88
2020/12/03 01:22:43;;;;;;;1.13;0.70;;;8.20;82.10;;;;;;3502144;33;20106;-88
2020/12/03 01:25:09;;;;;;;0.98;0.43;;;8.20;82.20;;;;;;3493592;33;20133;-88
2020/12/03 01:27:36;;;;;;;0.08;0.00;;;8.20;82.20;;;;;;3487757;33;20177;-90
2020/12/03 01:30:06;;;;;;;0.32;0.10;;;8.20;82.10;;;;;;3491308;33;20142;-90
2020/12/03 01:32:33;;;;;;;1.60;0.77;;;8.30;82.20;;;;;;3495959;33;20143;-89
2020/12/03 01:34:59;;;;;;;1.15;0.30;;;8.20;82.20;;;;;;3500444;33;20149;-88
2020/12/03 01:37:25;;;;;;;1.75;0.52;;;8.30;82.20;;;;;;3498181;41;20141;-87
2020/12/03 01:39:52;;;;;;;1.02;0.30;;;8.30;82.20;;;;;;3490148;41;20134;-88
2020/12/03 01:42:18;;;;;;;0.30;0.13;;;8.30;82.30;;;;;;3497166;33;20142;-89
2020/12/03 01:44:46;;;;;;;0.40;0.10;;;8.20;82.30;;;;;;3497004;33;20218;-87
2020/12/03 01:47:24;;;;;;;0.70;0.38;;;8.30;82.40;;;;;;3491026;33;20748;-88
2020/12/03 01:49:51;;;;;;;0.45;0.32;;;8.30;82.40;;;;;;3497301;41;20138;-88
2020/12/03 01:52:17;;;;;;;0.30;0.10;;;8.30;82.40;;;;;;3488771;33;20625;-88
2020/12/03 01:54:43;;;;;;;0.43;0.38;;;8.30;82.40;;;;;;3500094;33;20557;-88
2020/12/03 01:57:10;;;;;;;0.75;0.28;;;8.30;82.40;;;;;;3495001;41;20146;-89
2020/12/03 01:59:41;;;;;;;1.13;0.32;;;8.30;82.40;;;;;;3501433;41;20163;-89
2020/12/03 02:02:09;;;;;;;4.43;0.60;;;8.30;82.40;;;;;;3506772;33;20150;-89
2020/12/03 02:04:35;;;;;;;0.30;0.20;;;8.30;82.40;;;;;;3488751;41;20605;-90
2020/12/03 02:07:07;;;;;;;0.40;0.28;;;8.30;82.40;;;;;;3485133;41;20529;-89
2020/12/03 02:09:34;;;;;;;2.22;0.57;;;8.40;82.50;;;;;;3495378;41;20134;-88
2020/12/03 02:12:00;;;;;;;3.88;0.73;;;8.40;82.50;;;;;;3492294;33;20142;-89
2020/12/03 02:14:27;;;;;;;1.25;0.55;;;8.40;82.50;;;;;;3500707;33;20488;-88
2020/12/03 02:16:53;;;;;;;0.30;0.25;;;8.40;82.50;;;;;;3495546;33;20135;-88
2020/12/03 02:19:21;;;;;;;0.50;0.43;;;8.40;82.50;;;;;;3490055;33;20483;-87
2020/12/03 02:22:05;;;;;;;0.22;0.22;;;8.40;82.50;;;;;;3492249;41;20142;-89
2020/12/03 02:24:36;;;;;;;0.60;0.30;;;8.40;82.60;;;;;;3487328;41;20138;-89
2020/12/03 02:27:03;;;;;;;0.90;0.32;;;8.40;82.70;;;;;;3491133;33;20508;-88
2020/12/03 02:29:30;;;;;;;0.45;0.35;;;8.30;82.60;;;;;;3488176;41;20146;-89
2020/12/03 02:31:57;;;;;;;0.32;0.20;;;8.40;82.70;;;;;;3489030;33;20174;-89
2020/12/03 02:34:23;;;;;;;0.85;0.50;;;8.40;82.70;;;;;;3491571;33;20207;-88
2020/12/03 02:36:57;;;;;;;1.15;0.30;;;8.40;82.70;;;;;;3489833;41;20138;-88
2020/12/03 02:39:24;;;;;;;0.68;0.20;;;8.40;82.70;;;;;;3490115;41;20122;-89
2020/12/03 02:41:50;;;;;;;0.95;0.43;;;8.40;82.70;;;;;;3499407;41;20145;-88
2020/12/03 02:44:17;;;;;;;0.10;0.10;;;8.40;82.70;;;;;;3499655;41;20150;-89
2020/12/03 02:46:44;;;;;;;0.30;0.30;;;8.40;82.70;;;;;;3496948;34;20134;-89
2020/12/03 02:49:10;;;;;;;0.55;0.32;;;8.40;82.70;;;;;;3503664;33;20129;-89
2020/12/03 02:51:38;;;;;;;1.35;0.40;;;8.50;82.80;;;;;;3491086;41;20529;-88
2020/12/03 02:54:05;;;;;;;1.55;0.47;;;8.40;82.70;;;;;;3493556;41;20141;-88
2020/12/03 02:56:31;;;;;;;0.85;0.13;;;8.40;82.80;;;;;;3499185;33;20106;-88
2020/12/03 02:58:57;;;;;;;1.63;0.65;;;8.40;82.80;;;;;;3493297;41;20121;-88
2020/12/03 03:01:24;;;;;;;1.50;0.68;;;8.50;82.90;;;;;;3498110;33;20142;-89
2020/12/03 03:03:58;;;;;;;0.10;0.00;;;8.50;82.90;;;;;;3488855;33;20276;-89
2020/12/03 03:06:24;;;;;;;0.25;0.13;;;8.50;82.90;;;;;;3499060;33;20213;-88
2020/12/03 03:08:50;;;;;;;0.93;0.38;;;8.50;82.90;;;;;;3490770;33;20153;-89
2020/12/03 03:11:17;;;;;;;4.13;0.52;;;8.50;83.00;;;;;;3495391;41;20186;-89
2020/12/03 03:13:43;;;;;;;0.38;0.13;;;8.50;83.00;;;;;;3499579;33;20142;-88
2020/12/03 03:16:10;;;;;;;3.60;0.73;;;8.50;83.00;;;;;;3496514;34;20186;-88
2020/12/03 03:18:36;;;;;;;0.65;0.28;;;8.50;83.00;;;;;;3496355;41;20146;-90
2020/12/03 03:21:02;;;;;;;0.70;0.30;;;8.50;83.00;;;;;;3486971;41;20157;-88
2020/12/03 03:23:30;;;;;;;0.93;0.20;;;8.50;83.00;;;;;;3500090;33;20150;-88
2020/12/03 03:25:56;;;;;;;0.80;0.35;;;8.50;83.00;;;;;;3494921;41;20165;-89
2020/12/03 03:28:23;;;;;;;0.35;0.13;;;8.50;83.00;;;;;;3494939;33;20151;-89
2020/12/03 03:30:49;;;;;;;0.25;0.15;;;8.50;83.00;;;;;;3486636;33;20573;-89
2020/12/03 03:33:15;;;;;;;0.20;0.10;;;8.50;83.00;;;;;;3508225;33;20130;-89
2020/12/03 03:35:47;;;;;;;0.63;0.30;;;8.60;83.00;;;;;;3488601;41;20174;-89
2020/12/03 03:38:14;;;;;;;2.47;0.65;;;8.60;83.00;;;;;;3489224;33;20193;-90
2020/12/03 03:40:40;;;;;;;0.57;0.20;;;8.60;83.00;;;;;;3489625;33;20198;-90
2020/12/03 03:43:07;;;;;;;0.40;0.20;;;8.60;83.00;;;;;;3489516;41;20294;-89
2020/12/03 03:45:33;;;;;;;0.93;0.22;;;8.60;83.00;;;;;;3491020;33;20138;-89
2020/12/03 03:48:00;;;;;;;2.83;0.82;;;8.60;83.00;;;;;;3488622;33;20178;-87
2020/12/03 03:50:27;;;;;;;0.20;0.10;;;8.60;83.00;;;;;;3495194;41;20165;-88
2020/12/03 03:52:54;;;;;;;0.40;0.03;;;8.60;83.10;;;;;;3494640;33;20149;-88
2020/12/03 03:55:21;;;;;;;0.60;0.10;;;8.60;83.20;;;;;;3485241;41;20198;-88
2020/12/03 03:57:47;;;;;;;0.15;0.00;;;8.60;83.10;;;;;;3494095;41;20147;-88
2020/12/03 04:00:17;;;;;;;0.20;0.20;;;8.60;83.20;;;;;;3492462;33;20170;-89
2020/12/03 04:02:44;;;;;;;0.13;0.10;;;8.60;83.20;;;;;;3497332;33;20446;-90
2020/12/03 04:05:11;;;;;;;0.35;0.15;;;8.60;83.30;;;;;;3489468;41;20134;-89
2020/12/03 04:07:38;;;;;;;0.10;0.10;;;8.60;83.40;;;;;;3497066;41;20114;-89
2020/12/03 04:10:05;;;;;;;0.55;0.20;;;8.60;83.40;;;;;;3507249;40;20109;-90
2020/12/03 04:12:31;;;;;;;0.30;0.10;;;8.60;83.50;;;;;;3500442;33;20113;-87
2020/12/03 04:15:00;;;;;;;0.40;0.10;;;8.60;83.50;;;;;;3500658;41;20128;-88
2020/12/03 04:17:27;;;;;;;1.70;0.50;;;8.50;83.50;;;;;;3495912;34;20146;-88
2020/12/03 04:19:57;;;;;;;0.00;0.00;;;8.50;83.50;;;;;;3491068;33;20134;-88
2020/12/03 04:22:23;;;;;;;1.02;0.25;;;8.50;83.50;;;;;;3486777;33;20618;-88
2020/12/03 04:24:50;;;;;;;0.10;0.10;;;8.60;83.50;;;;;;3497157;33;20146;-87
2020/12/03 04:27:16;;;;;;;0.30;0.10;;;8.60;83.50;;;;;;3486761;33;20166;-89
2020/12/03 04:29:43;;;;;;;0.75;0.20;;;8.60;83.50;;;;;;3487490;33;20130;-88
2020/12/03 04:32:09;;;;;;;0.55;0.13;;;8.60;83.50;;;;;;3485159;34;20151;-87
2020/12/03 04:34:35;;;;;;;1.70;0.52;;;8.60;83.60;;;;;;3492449;33;20145;-88
2020/12/03 04:37:02;;;;;;;0.40;0.03;;;8.50;83.60;;;;;;3479791;33;20130;-89
2020/12/03 04:39:28;;;;;;;0.10;0.10;;;8.60;83.70;;;;;;3487198;41;20150;-88
2020/12/03 04:41:54;;;;;;;0.00;0.00;;;8.50;83.70;;;;;;3487054;41;20130;-88
2020/12/03 04:44:27;;;;;;;1.80;0.30;;;8.50;83.80;;;;;;3485928;41;20602;-89
2020/12/03 04:47:20;;;;;;;0.17;0.10;;;8.50;83.80;;;;;;3485063;33;20568;-88
2020/12/03 04:50:17;;;;;;;0.00;0.00;;;8.50;83.80;;;;;;3492626;33;20134;-89
2020/12/03 04:52:53;;;;;;;3.60;0.15;;;8.50;83.90;;;;;;3495352;41;20174;-88
2020/12/03 04:55:27;;;;;;;1.48;0.20;;;8.50;83.90;;;;;;3500692;33;20134;-90
2020/12/03 04:57:53;;;;;;;2.13;0.35;;;8.50;84.00;;;;;;3500514;33;20132;-89
2020/12/03 05:00:38;;;;;;;0.73;0.38;;;8.50;84.00;;;;;;3502782;33;20122;-88
2020/12/03 05:03:28;;;;;;;0.63;0.20;;;8.50;84.00;;;;;;3485222;41;20122;-89
2020/12/03 05:06:25;;;;;;;0.15;0.10;;;8.50;84.00;;;;;;3489862;41;20138;-90
2020/12/03 05:09:22;;;;;;;0.52;0.22;;;8.50;83.90;;;;;;3494903;33;20122;-89
2020/12/03 05:11:54;;;;;;;0.73;0.20;;;8.50;83.90;;;;;;3483967;41;20121;-89
2020/12/03 05:14:46;;;;;;;0.73;0.20;;;8.50;83.90;;;;;;3491286;33;20178;-89
2020/12/03 05:17:20;;;;;;;0.28;0.20;;;8.50;83.90;;;;;;3491212;34;20129;-91
2020/12/03 05:20:09;;;;;;;0.10;0.00;;;8.50;84.00;;;;;;3500154;41;20141;-89
2020/12/03 05:22:35;;;;;;;2.00;0.43;;;8.50;84.00;;;;;;3482253;41;20447;-91
2020/12/03 05:25:02;;;;;;;6.13;0.75;;;8.50;84.10;;;;;;3496644;33;20155;-90
2020/12/03 05:27:30;;;;;;;3.92;0.35;;;8.50;84.10;;;;;;3493562;41;20212;-91
2020/12/03 05:29:57;;;;;;;0.13;0.10;;;8.50;84.20;;;;;;3491684;41;20540;-90
2020/12/03 05:32:23;;;;;;;0.10;0.05;;;8.50;84.20;;;;;;3485652;34;20399;-91
2020/12/03 05:34:50;;;;;;;2.67;0.43;;;8.50;84.30;;;;;;3497640;33;20126;-91
2020/12/03 05:37:17;;;;;;;3.60;0.30;;;8.50;84.40;;;;;;3496175;41;20146;-89
2020/12/03 05:39:52;;;;;;;0.00;0.00;;;8.40;84.30;;;;;;3500000;33;20132;-89
2020/12/03 05:42:45;;;;;;;1.10;0.45;;;8.40;84.40;;;;;;3511635;33;20134;-92
2020/12/03 05:45:16;;;;;;;0.68;0.45;;;8.40;84.40;;;;;;3498122;33;20114;-91
2020/12/03 05:47:43;;;;;;;0.70;0.20;;;8.40;84.40;;;;;;3492908;41;20121;-91
2020/12/03 05:50:15;;;;;;;1.83;0.25;;;8.40;84.50;;;;;;3505346;41;20133;-91
2020/12/03 05:52:53;;;;;;;9.20;0.28;;;8.40;84.40;;;;;;3505101;41;20616;-91
2020/12/03 05:55:25;;;;;;;5.07;0.60;;;8.40;84.50;;;;;;3497323;33;20134;-89
2020/12/03 05:58:31;;;;;;;0.20;0.10;;;8.40;84.50;;;;;;3492207;40;20694;-93
2020/12/03 06:01:18;;;;;;;0.30;0.10;;;8.40;84.50;;;;;;3512337;33;20110;-91
2020/12/03 08:17:43;;;;;;;0.43;0.20;;;8.30;84.60;;;;;;3623416;27;20065;-91
2020/12/03 08:52:38;;;;;;;1.38;0.82;;;8.40;84.70;;;;;;3887087;27;20130;-91
2020/12/03 08:58:23;;;;;;;0.60;0.20;;;8.40;84.70;;;;;;3588530;28;20125;-91
2020/12/03 09:04:30;;;;;;;0.35;0.25;;;8.50;84.70;;;;;;3493324;33;20095;-89
2020/12/03 09:43:21;;;;;;;1.05;0.30;;;8.40;84.40;;;;;;4038623;27;20339;31
2020/12/03 10:34:42;;;;;;;0.38;0.10;;;8.50;84.30;;;;;;3512556;41;20185;-93
2020/12/03 10:37:41;;;;;;;0.03;0.00;;;8.50;84.30;;;;;;3496826;41;20168;-91
2020/12/03 10:40:14;;;;;;;0.30;0.15;;;8.50;84.40;;;;;;3506116;33;20121;-91
2020/12/03 10:43:27;;;;;;;;;;;;;;;;;;;;;
2020/12/03 11:04:17;;;;;;;1.30;0.10;;;8.70;84.10;;;;;;3772117;28;20129;-91
2020/12/03 11:06:53;;;;;;;12.02;0.40;;;8.70;84.10;;;;;;3499261;41;20098;-90
2020/12/03 11:09:31;;;;;;;0.00;0.00;;;8.70;84.10;;;;;;3515903;33;20124;-90
2020/12/03 11:12:38;;;;;;;0.50;0.10;;;8.80;84.10;;;;;;3764175;35;20167;-90
2020/12/03 11:26:28;;;;;;;0.00;0.00;;;8.90;84.00;;;;;;3792516;27;20134;-88
2020/12/03 11:29:42;;;;;;;0.00;0.00;;;8.90;84.00;;;;;;3495585;41;20129;-89
2020/12/03 11:53:26;;;;;;;0.10;0.00;;;9.10;83.50;;;;;;3846345;27;19959;-89
2020/12/03 11:55:52;;;;;;;0.40;0.08;;;9.10;83.50;;;;;;3499425;33;20125;-88
2020/12/03 11:58:24;;;;;;;0.05;0.00;;;9.10;83.50;;;;;;3780413;35;20189;-89
2020/12/03 12:01:07;;;;;;;0.10;0.10;;;9.20;83.50;;;;;;3486626;34;20585;-88
2020/12/03 12:03:34;;;;;;;0.00;0.00;;;9.20;83.50;;;;;;3483518;40;20118;-88
2020/12/03 12:06:14;;;;;;;0.85;0.38;;;9.20;83.50;;;;;;3500960;33;20138;-89
2020/12/03 12:08:47;;;;;;;0.00;0.00;;;9.30;83.60;;;;;;3487790;33;20142;-87
2020/12/03 12:11:37;;;;;;;0.10;0.00;;;9.30;83.60;;;;;;3493078;33;20142;-88
2020/12/03 12:14:03;;;;;;;1.73;0.77;;;9.30;83.60;;;;;;3482881;41;20161;-86
2020/12/03 12:16:40;;;;;;;;;;;;;;;;;;;;;
2020/12/03 12:19:07;;;;;;;0.32;0.17;;;9.40;83.60;;;;;;3502109;33;20124;-90
2020/12/03 12:21:43;;;;;;;0.90;0.28;;;9.40;83.60;;;;;;3500530;33;20146;-88
2020/12/03 12:27:27;;;;;;;0.65;0.20;;;9.40;83.70;;;;;;3727679;27;20138;-88
2020/12/03 12:30:43;;;;;;;0.00;0.00;;;9.40;83.70;;;;;;3491434;41;20133;-89
2020/12/03 12:33:12;;;;;;;0.00;0.00;;;9.50;83.70;;;;;;3510491;33;20138;-88
2020/12/03 12:35:38;;;;;;;1.73;0.60;;;9.50;83.60;;;;;;3479546;41;20128;-86
2020/12/03 12:41:53;;;;;;;2.55;0.47;;;9.50;84.40;;;;;;3506457;41;20094;-89
2020/12/03 12:47:02;;;;;;;0.20;0.10;;;9.50;83.70;;;;;;3510060;34;20150;-89
2020/12/03 12:49:29;;;;;;;0.20;0.00;;;9.60;83.70;;;;;;3504470;33;20653;-90
2020/12/03 12:51:58;;;;;;;0.00;0.00;;;9.60;83.80;;;;;;3511297;41;20137;-91
2020/12/03 13:02:07;;;;;;;3.65;0.15;;;9.60;83.90;;;;;;3521650;33;20134;-88
2020/12/03 13:10:02;;;;;;;0.70;0.20;;;9.60;84.00;;;;;;2965628;30;20082;-90
2020/12/03 13:15:00;;;;;;;0.00;0.00;;;9.60;84.10;;;;;;3510131;40;20118;-89
2020/12/03 13:17:29;;;;;;;0.10;0.03;;;9.60;84.10;;;;;;3565745;33;20098;-93
2020/12/03 13:46:09;;;;;;;0.00;0.00;;;9.60;84.10;;;;;;3926162;27;20489;-88
2020/12/03 14:36:30;;;;;;;;;;;;;;;;;;;;;
2020/12/03 15:37:25;;;;;;;0.00;0.00;;;9.70;85.00;;;;;;3957666;28;20045;-91
2020/12/03 17:29:20;;;;;;;0.03;0.00;;;9.60;85.40;;;;;;3529355;28;20469;-91
2020/12/03 17:32:53;;;;;;;;;;;;;;;;;;;;;
2020/12/03 17:41:43;;;;;;;0.00;0.00;;;9.60;85.40;;;;;;3642162;28;20138;-91
2020/12/03 17:44:10;;;;;;;;;;;9.70;85.50;;;;;;3477891;41;20178;-89
2020/12/03 17:47:17;;;;;;;0.00;0.00;;;9.60;85.50;;;;;;3497057;33;20078;-91
2020/12/03 17:53:26;;;;;;;;;;;;;;;;;;;;;
2020/12/03 18:00:06;;;;;;;0.00;0.00;;;9.70;85.40;;;;;;3468296;33;20148;-91
2020/12/03 19:14:00;;;;;;;1.92;0.10;;;9.80;85.80;;;;;;3879011;27;20129;-87
2020/12/03 20:17:03;;;;;;;6.65;0.25;;;9.20;87.10;;;;;;3509730;33;20090;-90
2020/12/03 20:20:04;;;;;;;0.00;0.00;;;9.10;87.00;;;;;;3486071;41;20135;-89
2020/12/03 20:25:35;;;;;;;0.00;0.00;;;9.10;86.80;;;;;;3576119;35;20245;-88
2020/12/03 20:29:02;;;;;;;0.00;0.00;;;9.10;86.80;;;;;;3483147;33;20142;-90
2020/12/03 20:35:03;;;;;;;0.00;0.00;;;9.10;86.80;;;;;;3631624;33;20146;-88
2020/12/03 21:43:33;;;;;;;;;;;;;;;;;;;;;
2020/12/03 21:59:42;;;;;;;0.00;0.00;;;8.50;87.10;;;;;;3659323;27;20296;-90
